sensor_id;sensor_type;location;lat;lon;timestamp;P1;durP1;ratioP1;P2;durP2;ratioP2
53915;SDS011;39827;49.652;18.770;2023-02-11T00:00:23;521.40;;;477.55;;
53915;SDS011;39827;49.652;18.770;2023-02-11T00:02:48;488.45;;;448.42;;
53915;SDS011;39827;49.652;18.770;2023-02-11T00:05:14;516.63;;;477.45;;
53915;SDS011;39827;49.652;18.770;2023-02-11T00:07:40;535.80;;;495.23;;
53915;SDS011;39827;49.652;18.770;2023-02-11T00:10:05;397.38;;;365.70;;
53915;SDS011;39827;49.652;18.770;2023-02-11T00:12:32;392.52;;;360.05;;
53915;SDS011;39827;49.652;18.770;2023-02-11T00:14:58;590.30;;;542.95;;
53915;SDS011;39827;49.652;18.770;2023-02-11T00:17:24;503.00;;;461.63;;
53915;SDS011;39827;49.652;18.770;2023-02-11T00:19:50;493.67;;;452.90;;
53915;SDS011;39827;49.652;18.770;2023-02-11T00:22:16;511.70;;;470.13;;
53915;SDS011;39827;49.652;18.770;2023-02-11T00:24:41;506.35;;;462.38;;
53915;SDS011;39827;49.652;18.770;2023-02-11T00:27:07;494.33;;;454.17;;
53915;SDS011;39827;49.652;18.770;2023-02-11T00:29:32;439.35;;;403.48;;
53915;SDS011;39827;49.652;18.770;2023-02-11T00:31:58;414.98;;;379.45;;
53915;SDS011;39827;49.652;18.770;2023-02-11T00:34:29;454.63;;;418.00;;
53915;SDS011;39827;49.652;18.770;2023-02-11T00:36:58;443.35;;;407.52;;
53915;SDS011;39827;49.652;18.770;2023-02-11T00:39:23;336.80;;;310.00;;
53915;SDS011;39827;49.652;18.770;2023-02-11T00:41:49;403.90;;;371.40;;
53915;SDS011;39827;49.652;18.770;2023-02-11T00:44:14;435.02;;;400.00;;
53915;SDS011;39827;49.652;18.770;2023-02-11T00:46:40;423.42;;;390.10;;
53915;SDS011;39827;49.652;18.770;2023-02-11T00:49:05;431.67;;;397.70;;
53915;SDS011;39827;49.652;18.770;2023-02-11T00:51:31;460.08;;;423.30;;
53915;SDS011;39827;49.652;18.770;2023-02-11T00:53:56;435.73;;;400.05;;
53915;SDS011;39827;49.652;18.770;2023-02-11T00:56:21;527.83;;;487.15;;
53915;SDS011;39827;49.652;18.770;2023-02-11T00:58:47;490.17;;;451.98;;
53915;SDS011;39827;49.652;18.770;2023-02-11T01:01:12;496.45;;;456.63;;
53915;SDS011;39827;49.652;18.770;2023-02-11T01:03:38;477.70;;;439.52;;
53915;SDS011;39827;49.652;18.770;2023-02-11T01:06:04;352.25;;;323.58;;
53915;SDS011;39827;49.652;18.770;2023-02-11T01:08:32;386.38;;;354.63;;
53915;SDS011;39827;49.652;18.770;2023-02-11T01:10:58;348.55;;;320.00;;
53915;SDS011;39827;49.652;18.770;2023-02-11T01:13:26;372.35;;;342.33;;
53915;SDS011;39827;49.652;18.770;2023-02-11T01:15:52;386.08;;;354.98;;
53915;SDS011;39827;49.652;18.770;2023-02-11T01:18:18;444.73;;;410.00;;
53915;SDS011;39827;49.652;18.770;2023-02-11T01:20:43;522.67;;;481.85;;
53915;SDS011;39827;49.652;18.770;2023-02-11T01:23:08;575.85;;;531.38;;
53915;SDS011;39827;49.652;18.770;2023-02-11T01:25:34;504.60;;;465.48;;
53915;SDS011;39827;49.652;18.770;2023-02-11T01:27:59;375.95;;;345.90;;
53915;SDS011;39827;49.652;18.770;2023-02-11T01:30:25;357.90;;;329.35;;
53915;SDS011;39827;49.652;18.770;2023-02-11T01:32:50;374.83;;;345.50;;
53915;SDS011;39827;49.652;18.770;2023-02-11T01:35:15;391.00;;;359.20;;
53915;SDS011;39827;49.652;18.770;2023-02-11T01:37:41;385.10;;;354.63;;
53915;SDS011;39827;49.652;18.770;2023-02-11T01:40:10;405.85;;;372.92;;
53915;SDS011;39827;49.652;18.770;2023-02-11T01:42:37;497.05;;;455.25;;
53915;SDS011;39827;49.652;18.770;2023-02-11T01:45:40;562.90;;;515.72;;
53915;SDS011;39827;49.652;18.770;2023-02-11T01:48:06;475.45;;;435.88;;
53915;SDS011;39827;49.652;18.770;2023-02-11T01:50:34;385.95;;;354.02;;
53915;SDS011;39827;49.652;18.770;2023-02-11T01:53:01;469.77;;;429.73;;
53915;SDS011;39827;49.652;18.770;2023-02-11T01:55:47;481.40;;;438.98;;
53915;SDS011;39827;49.652;18.770;2023-02-11T01:58:31;508.77;;;465.33;;
53915;SDS011;39827;49.652;18.770;2023-02-11T02:00:58;564.30;;;516.65;;
53915;SDS011;39827;49.652;18.770;2023-02-11T02:03:28;557.40;;;509.00;;
53915;SDS011;39827;49.652;18.770;2023-02-11T02:06:21;411.80;;;374.52;;
53915;SDS011;39827;49.652;18.770;2023-02-11T02:11:18;526.70;;;478.85;;
53915;SDS011;39827;49.652;18.770;2023-02-11T02:13:44;484.92;;;441.55;;
53915;SDS011;39827;49.652;18.770;2023-02-11T02:16:10;563.80;;;514.35;;
53915;SDS011;39827;49.652;18.770;2023-02-11T02:18:52;508.52;;;467.15;;
53915;SDS011;39827;49.652;18.770;2023-02-11T02:37:33;460.48;;;420.33;;
53915;SDS011;39827;49.652;18.770;2023-02-11T02:40:08;523.10;;;478.50;;
53915;SDS011;39827;49.652;18.770;2023-02-11T02:42:38;503.60;;;459.08;;
53915;SDS011;39827;49.652;18.770;2023-02-11T02:45:05;536.03;;;489.15;;
53915;SDS011;39827;49.652;18.770;2023-02-11T02:47:33;589.45;;;537.65;;
53915;SDS011;39827;49.652;18.770;2023-02-11T02:49:58;600.35;;;547.95;;
53915;SDS011;39827;49.652;18.770;2023-02-11T02:52:46;570.53;;;518.67;;
53915;SDS011;39827;49.652;18.770;2023-02-11T02:55:37;560.95;;;509.55;;
53915;SDS011;39827;49.652;18.770;2023-02-11T03:01:25;542.55;;;493.08;;
53915;SDS011;39827;49.652;18.770;2023-02-11T03:09:41;503.52;;;454.80;;
53915;SDS011;39827;49.652;18.770;2023-02-11T03:12:13;474.60;;;428.85;;
53915;SDS011;39827;49.652;18.770;2023-02-11T03:14:40;489.80;;;442.38;;
53915;SDS011;39827;49.652;18.770;2023-02-11T03:17:06;454.08;;;409.70;;
53915;SDS011;39827;49.652;18.770;2023-02-11T03:19:35;469.88;;;424.70;;
53915;SDS011;39827;49.652;18.770;2023-02-11T03:22:04;483.23;;;439.00;;
53915;SDS011;39827;49.652;18.770;2023-02-11T03:24:34;445.52;;;404.08;;
53915;SDS011;39827;49.652;18.770;2023-02-11T03:27:09;396.67;;;360.67;;
53915;SDS011;39827;49.652;18.770;2023-02-11T03:32:33;424.92;;;386.58;;
53915;SDS011;39827;49.652;18.770;2023-02-11T03:35:06;388.88;;;352.80;;
53915;SDS011;39827;49.652;18.770;2023-02-11T03:37:38;396.27;;;360.90;;
53915;SDS011;39827;49.652;18.770;2023-02-11T03:42:43;395.45;;;361.08;;
53915;SDS011;39827;49.652;18.770;2023-02-11T03:45:14;346.95;;;317.73;;
53915;SDS011;39827;49.652;18.770;2023-02-11T03:47:44;373.85;;;341.05;;
53915;SDS011;39827;49.652;18.770;2023-02-11T03:50:13;399.10;;;364.42;;
53915;SDS011;39827;49.652;18.770;2023-02-11T03:52:40;441.80;;;401.10;;
53915;SDS011;39827;49.652;18.770;2023-02-11T03:55:10;377.27;;;345.05;;
53915;SDS011;39827;49.652;18.770;2023-02-11T03:57:39;383.67;;;350.48;;
53915;SDS011;39827;49.652;18.770;2023-02-11T04:00:04;400.52;;;367.02;;
53915;SDS011;39827;49.652;18.770;2023-02-11T04:02:32;376.85;;;344.73;;
53915;SDS011;39827;49.652;18.770;2023-02-11T04:04:59;375.30;;;343.63;;
53915;SDS011;39827;49.652;18.770;2023-02-11T04:07:25;408.40;;;372.20;;
53915;SDS011;39827;49.652;18.770;2023-02-11T04:09:51;392.25;;;358.40;;
53915;SDS011;39827;49.652;18.770;2023-02-11T04:12:16;421.33;;;382.92;;
53915;SDS011;39827;49.652;18.770;2023-02-11T04:14:42;437.95;;;398.85;;
53915;SDS011;39827;49.652;18.770;2023-02-11T04:17:07;378.52;;;345.83;;
53915;SDS011;39827;49.652;18.770;2023-02-11T04:19:33;416.52;;;379.83;;
53915;SDS011;39827;49.652;18.770;2023-02-11T04:21:58;405.75;;;370.48;;
53915;SDS011;39827;49.652;18.770;2023-02-11T04:24:24;379.98;;;348.13;;
53915;SDS011;39827;49.652;18.770;2023-02-11T04:26:49;402.55;;;368.05;;
53915;SDS011;39827;49.652;18.770;2023-02-11T04:29:14;460.60;;;417.92;;
53915;SDS011;39827;49.652;18.770;2023-02-11T04:31:40;384.90;;;351.85;;
53915;SDS011;39827;49.652;18.770;2023-02-11T04:34:05;422.27;;;383.08;;
53915;SDS011;39827;49.652;18.770;2023-02-11T04:36:31;438.73;;;398.23;;
53915;SDS011;39827;49.652;18.770;2023-02-11T04:38:56;395.15;;;361.63;;
53915;SDS011;39827;49.652;18.770;2023-02-11T04:41:21;417.40;;;381.20;;
53915;SDS011;39827;49.652;18.770;2023-02-11T04:43:47;407.27;;;371.00;;
53915;SDS011;39827;49.652;18.770;2023-02-11T04:46:12;385.60;;;352.95;;
53915;SDS011;39827;49.652;18.770;2023-02-11T04:48:37;446.35;;;406.27;;
53915;SDS011;39827;49.652;18.770;2023-02-11T04:51:03;374.52;;;343.08;;
53915;SDS011;39827;49.652;18.770;2023-02-11T04:53:28;405.88;;;369.63;;
53915;SDS011;39827;49.652;18.770;2023-02-11T04:55:54;440.02;;;400.27;;
53915;SDS011;39827;49.652;18.770;2023-02-11T04:58:19;389.38;;;356.38;;
53915;SDS011;39827;49.652;18.770;2023-02-11T05:00:45;381.45;;;348.33;;
53915;SDS011;39827;49.652;18.770;2023-02-11T05:03:11;398.90;;;364.17;;
53915;SDS011;39827;49.652;18.770;2023-02-11T05:05:38;407.75;;;371.70;;
53915;SDS011;39827;49.652;18.770;2023-02-11T05:08:04;392.48;;;358.05;;
53915;SDS011;39827;49.652;18.770;2023-02-11T05:10:30;369.30;;;337.90;;
53915;SDS011;39827;49.652;18.770;2023-02-11T05:12:56;408.20;;;372.42;;
53915;SDS011;39827;49.652;18.770;2023-02-11T05:15:21;442.67;;;402.50;;
53915;SDS011;39827;49.652;18.770;2023-02-11T05:17:46;382.95;;;349.75;;
53915;SDS011;39827;49.652;18.770;2023-02-11T05:20:12;443.05;;;404.08;;
53915;SDS011;39827;49.652;18.770;2023-02-11T05:22:37;334.83;;;307.52;;
53915;SDS011;39827;49.652;18.770;2023-02-11T05:25:03;372.63;;;339.80;;
53915;SDS011;39827;49.652;18.770;2023-02-11T05:27:28;388.10;;;354.58;;
53915;SDS011;39827;49.652;18.770;2023-02-11T05:29:54;411.13;;;374.58;;
53915;SDS011;39827;49.652;18.770;2023-02-11T05:32:19;361.67;;;331.25;;
53915;SDS011;39827;49.652;18.770;2023-02-11T05:34:44;380.83;;;349.23;;
53915;SDS011;39827;49.652;18.770;2023-02-11T05:37:10;373.50;;;342.02;;
53915;SDS011;39827;49.652;18.770;2023-02-11T05:39:35;381.10;;;348.77;;
53915;SDS011;39827;49.652;18.770;2023-02-11T05:42:00;409.67;;;374.00;;
53915;SDS011;39827;49.652;18.770;2023-02-11T05:44:26;381.63;;;349.83;;
53915;SDS011;39827;49.652;18.770;2023-02-11T05:46:51;372.05;;;340.50;;
53915;SDS011;39827;49.652;18.770;2023-02-11T05:49:17;390.48;;;358.38;;
53915;SDS011;39827;49.652;18.770;2023-02-11T05:51:42;391.77;;;359.25;;
53915;SDS011;39827;49.652;18.770;2023-02-11T05:54:07;366.45;;;335.60;;
53915;SDS011;39827;49.652;18.770;2023-02-11T05:56:33;409.95;;;373.85;;
53915;SDS011;39827;49.652;18.770;2023-02-11T05:58:58;403.20;;;367.42;;
53915;SDS011;39827;49.652;18.770;2023-02-11T06:01:24;387.33;;;354.40;;
53915;SDS011;39827;49.652;18.770;2023-02-11T06:03:50;387.85;;;354.48;;
53915;SDS011;39827;49.652;18.770;2023-02-11T06:06:16;410.70;;;373.90;;
53915;SDS011;39827;49.652;18.770;2023-02-11T06:08:41;379.73;;;347.45;;
53915;SDS011;39827;49.652;18.770;2023-02-11T06:11:07;404.88;;;368.75;;
53915;SDS011;39827;49.652;18.770;2023-02-11T06:13:33;421.08;;;383.33;;
53915;SDS011;39827;49.652;18.770;2023-02-11T06:16:00;422.00;;;385.08;;
53915;SDS011;39827;49.652;18.770;2023-02-11T06:18:26;413.10;;;376.13;;
53915;SDS011;39827;49.652;18.770;2023-02-11T06:20:52;387.90;;;355.20;;
53915;SDS011;39827;49.652;18.770;2023-02-11T06:23:18;409.08;;;373.98;;
53915;SDS011;39827;49.652;18.770;2023-02-11T06:25:43;406.75;;;371.00;;
53915;SDS011;39827;49.652;18.770;2023-02-11T06:28:08;380.90;;;348.45;;
53915;SDS011;39827;49.652;18.770;2023-02-11T06:30:35;384.83;;;351.75;;
53915;SDS011;39827;49.652;18.770;2023-02-11T06:33:01;359.15;;;329.40;;
53915;SDS011;39827;49.652;18.770;2023-02-11T06:35:27;382.67;;;349.60;;
53915;SDS011;39827;49.652;18.770;2023-02-11T06:37:52;438.50;;;398.48;;
53915;SDS011;39827;49.652;18.770;2023-02-11T06:40:18;439.10;;;399.42;;
53915;SDS011;39827;49.652;18.770;2023-02-11T06:42:44;380.10;;;347.98;;
53915;SDS011;39827;49.652;18.770;2023-02-11T06:45:10;436.77;;;397.63;;
53915;SDS011;39827;49.652;18.770;2023-02-11T06:47:37;380.17;;;348.30;;
53915;SDS011;39827;49.652;18.770;2023-02-11T06:50:02;456.33;;;415.77;;
53915;SDS011;39827;49.652;18.770;2023-02-11T06:52:28;402.95;;;368.27;;
53915;SDS011;39827;49.652;18.770;2023-02-11T06:54:54;447.63;;;407.08;;
53915;SDS011;39827;49.652;18.770;2023-02-11T06:57:19;494.77;;;449.77;;
53915;SDS011;39827;49.652;18.770;2023-02-11T06:59:44;449.08;;;409.15;;
53915;SDS011;39827;49.652;18.770;2023-02-11T07:02:10;372.17;;;340.83;;
53915;SDS011;39827;49.652;18.770;2023-02-11T07:04:35;452.27;;;411.15;;
53915;SDS011;39827;49.652;18.770;2023-02-11T07:07:01;385.73;;;353.10;;
53915;SDS011;39827;49.652;18.770;2023-02-11T07:09:26;411.80;;;376.20;;
53915;SDS011;39827;49.652;18.770;2023-02-11T07:11:51;427.65;;;389.35;;
53915;SDS011;39827;49.652;18.770;2023-02-11T07:14:17;417.13;;;379.85;;
53915;SDS011;39827;49.652;18.770;2023-02-11T07:16:42;456.38;;;415.95;;
53915;SDS011;39827;49.652;18.770;2023-02-11T07:19:07;462.17;;;420.90;;
53915;SDS011;39827;49.652;18.770;2023-02-11T07:21:33;442.98;;;404.42;;
53915;SDS011;39827;49.652;18.770;2023-02-11T07:23:58;470.67;;;428.00;;
53915;SDS011;39827;49.652;18.770;2023-02-11T07:26:24;476.73;;;434.20;;
53915;SDS011;39827;49.652;18.770;2023-02-11T07:28:50;462.98;;;421.67;;
53915;SDS011;39827;49.652;18.770;2023-02-11T07:31:20;446.48;;;405.90;;
53915;SDS011;39827;49.652;18.770;2023-02-11T07:33:47;411.10;;;375.23;;
53915;SDS011;39827;49.652;18.770;2023-02-11T07:36:14;491.23;;;447.80;;
53915;SDS011;39827;49.652;18.770;2023-02-11T07:38:40;496.85;;;452.52;;
53915;SDS011;39827;49.652;18.770;2023-02-11T07:41:08;434.65;;;395.20;;
53915;SDS011;39827;49.652;18.770;2023-02-11T07:43:35;219.38;;;200.68;;
53915;SDS011;39827;49.652;18.770;2023-02-11T07:46:02;314.27;;;286.83;;
53915;SDS011;39827;49.652;18.770;2023-02-11T07:48:32;291.40;;;266.83;;
53915;SDS011;39827;49.652;18.770;2023-02-11T07:51:17;322.20;;;295.25;;
53915;SDS011;39827;49.652;18.770;2023-02-11T07:53:47;401.63;;;368.05;;
53915;SDS011;39827;49.652;18.770;2023-02-11T07:56:14;356.60;;;326.77;;
53915;SDS011;39827;49.652;18.770;2023-02-11T07:58:40;412.02;;;374.95;;
53915;SDS011;39827;49.652;18.770;2023-02-11T08:01:08;565.55;;;516.95;;
53915;SDS011;39827;49.652;18.770;2023-02-11T08:03:42;345.63;;;317.50;;
53915;SDS011;39827;49.652;18.770;2023-02-11T08:06:12;307.10;;;282.20;;
53915;SDS011;39827;49.652;18.770;2023-02-11T08:08:40;353.85;;;325.63;;
53915;SDS011;39827;49.652;18.770;2023-02-11T08:11:11;408.42;;;374.75;;
53915;SDS011;39827;49.652;18.770;2023-02-11T08:13:39;429.25;;;394.63;;
53915;SDS011;39827;49.652;18.770;2023-02-11T08:16:05;266.50;;;244.65;;
53915;SDS011;39827;49.652;18.770;2023-02-11T08:18:32;299.58;;;276.17;;
53915;SDS011;39827;49.652;18.770;2023-02-11T08:21:05;372.98;;;343.83;;
53915;SDS011;39827;49.652;18.770;2023-02-11T08:23:31;397.13;;;366.85;;
53915;SDS011;39827;49.652;18.770;2023-02-11T08:26:03;402.48;;;371.85;;
53915;SDS011;39827;49.652;18.770;2023-02-11T08:28:33;435.63;;;402.10;;
53915;SDS011;39827;49.652;18.770;2023-02-11T08:31:03;343.10;;;317.33;;
53915;SDS011;39827;49.652;18.770;2023-02-11T08:33:33;253.55;;;234.15;;
53915;SDS011;39827;49.652;18.770;2023-02-11T08:35:59;170.70;;;157.73;;
53915;SDS011;39827;49.652;18.770;2023-02-11T08:38:24;158.18;;;145.40;;
53915;SDS011;39827;49.652;18.770;2023-02-11T08:40:50;148.52;;;136.98;;
53915;SDS011;39827;49.652;18.770;2023-02-11T08:43:15;104.63;;;95.25;;
53915;SDS011;39827;49.652;18.770;2023-02-11T08:45:40;95.75;;;87.20;;
53915;SDS011;39827;49.652;18.770;2023-02-11T08:48:06;216.38;;;200.30;;
53915;SDS011;39827;49.652;18.770;2023-02-11T08:50:31;157.90;;;145.15;;
53915;SDS011;39827;49.652;18.770;2023-02-11T08:52:57;240.25;;;222.07;;
53915;SDS011;39827;49.652;18.770;2023-02-11T08:55:22;292.77;;;270.77;;
53915;SDS011;39827;49.652;18.770;2023-02-11T08:57:48;355.15;;;328.55;;
53915;SDS011;39827;49.652;18.770;2023-02-11T09:00:13;317.58;;;293.52;;
53915;SDS011;39827;49.652;18.770;2023-02-11T09:02:40;328.30;;;303.33;;
53915;SDS011;39827;49.652;18.770;2023-02-11T09:05:05;293.13;;;270.33;;
53915;SDS011;39827;49.652;18.770;2023-02-11T09:07:31;355.90;;;328.15;;
53915;SDS011;39827;49.652;18.770;2023-02-11T09:09:57;337.00;;;310.90;;
53915;SDS011;39827;49.652;18.770;2023-02-11T09:12:22;421.35;;;389.15;;
53915;SDS011;39827;49.652;18.770;2023-02-11T09:14:47;369.65;;;342.02;;
53915;SDS011;39827;49.652;18.770;2023-02-11T09:17:13;309.60;;;285.98;;
53915;SDS011;39827;49.652;18.770;2023-02-11T09:19:38;367.95;;;340.27;;
53915;SDS011;39827;49.652;18.770;2023-02-11T09:22:03;398.27;;;367.27;;
53915;SDS011;39827;49.652;18.770;2023-02-11T09:24:29;337.80;;;310.30;;
53915;SDS011;39827;49.652;18.770;2023-02-11T09:26:54;307.08;;;283.75;;
53915;SDS011;39827;49.652;18.770;2023-02-11T09:29:20;278.27;;;257.45;;
53915;SDS011;39827;49.652;18.770;2023-02-11T09:31:45;280.67;;;259.63;;
53915;SDS011;39827;49.652;18.770;2023-02-11T09:34:11;335.40;;;310.75;;
53915;SDS011;39827;49.652;18.770;2023-02-11T09:36:37;316.67;;;293.02;;
53915;SDS011;39827;49.652;18.770;2023-02-11T09:39:04;303.92;;;281.08;;
53915;SDS011;39827;49.652;18.770;2023-02-11T09:44:30;341.70;;;315.63;;
53915;SDS011;39827;49.652;18.770;2023-02-11T09:47:04;407.08;;;376.20;;
53915;SDS011;39827;49.652;18.770;2023-02-11T09:49:42;368.95;;;340.60;;
53915;SDS011;39827;49.652;18.770;2023-02-11T09:52:29;372.95;;;344.13;;
53915;SDS011;39827;49.652;18.770;2023-02-11T09:54:58;334.30;;;309.17;;
53915;SDS011;39827;49.652;18.770;2023-02-11T09:57:27;333.13;;;308.10;;
53915;SDS011;39827;49.652;18.770;2023-02-11T09:59:59;373.45;;;344.27;;
53915;SDS011;39827;49.652;18.770;2023-02-11T10:02:31;351.92;;;324.30;;
53915;SDS011;39827;49.652;18.770;2023-02-11T10:06:10;347.77;;;321.73;;
53915;SDS011;39827;49.652;18.770;2023-02-11T10:10:51;382.40;;;353.02;;
53915;SDS011;39827;49.652;18.770;2023-02-11T10:24:14;310.45;;;287.02;;
53915;SDS011;39827;49.652;18.770;2023-02-11T10:26:41;330.83;;;305.73;;
53915;SDS011;39827;49.652;18.770;2023-02-11T10:31:53;364.48;;;337.15;;
53915;SDS011;39827;49.652;18.770;2023-02-11T10:34:18;399.88;;;368.77;;
53915;SDS011;39827;49.652;18.770;2023-02-11T10:36:44;359.35;;;332.38;;
53915;SDS011;39827;49.652;18.770;2023-02-11T10:41:46;357.38;;;330.35;;
53915;SDS011;39827;49.652;18.770;2023-02-11T10:44:37;307.02;;;283.95;;
53915;SDS011;39827;49.652;18.770;2023-02-11T10:47:08;347.55;;;321.88;;
53915;SDS011;39827;49.652;18.770;2023-02-11T10:49:41;413.25;;;380.50;;
53915;SDS011;39827;49.652;18.770;2023-02-11T10:52:12;376.58;;;348.08;;
53915;SDS011;39827;49.652;18.770;2023-02-11T10:57:57;325.40;;;300.52;;
53915;SDS011;39827;49.652;18.770;2023-02-11T11:00:41;328.60;;;303.77;;
53915;SDS011;39827;49.652;18.770;2023-02-11T11:03:17;305.58;;;282.88;;
53915;SDS011;39827;49.652;18.770;2023-02-11T11:05:48;264.30;;;244.52;;
53915;SDS011;39827;49.652;18.770;2023-02-11T11:08:16;323.98;;;299.77;;
53915;SDS011;39827;49.652;18.770;2023-02-11T11:10:44;292.40;;;270.45;;
53915;SDS011;39827;49.652;18.770;2023-02-11T11:13:29;263.55;;;243.02;;
53915;SDS011;39827;49.652;18.770;2023-02-11T11:18:37;267.98;;;247.07;;
53915;SDS011;39827;49.652;18.770;2023-02-11T11:21:15;295.50;;;272.45;;
53915;SDS011;39827;49.652;18.770;2023-02-11T11:23:58;194.25;;;178.50;;
53915;SDS011;39827;49.652;18.770;2023-02-11T11:26:42;115.55;;;105.40;;
53915;SDS011;39827;49.652;18.770;2023-02-11T11:29:28;150.00;;;137.45;;
53915;SDS011;39827;49.652;18.770;2023-02-11T11:32:11;122.28;;;112.07;;
53915;SDS011;39827;49.652;18.770;2023-02-11T11:34:47;112.10;;;101.78;;
53915;SDS011;39827;49.652;18.770;2023-02-11T11:37:22;105.95;;;96.07;;
53915;SDS011;39827;49.652;18.770;2023-02-11T11:39:55;96.95;;;88.15;;
53915;SDS011;39827;49.652;18.770;2023-02-11T11:42:23;98.72;;;89.57;;
53915;SDS011;39827;49.652;18.770;2023-02-11T11:45:01;135.85;;;124.25;;
53915;SDS011;39827;49.652;18.770;2023-02-11T11:53:28;105.50;;;95.72;;
53915;SDS011;39827;49.652;18.770;2023-02-11T11:58:46;115.28;;;105.10;;
53915;SDS011;39827;49.652;18.770;2023-02-11T12:15:26;294.55;;;273.10;;
53915;SDS011;39827;49.652;18.770;2023-02-11T12:18:11;293.40;;;272.30;;
53915;SDS011;39827;49.652;18.770;2023-02-11T12:23:47;364.90;;;338.05;;
53915;SDS011;39827;49.652;18.770;2023-02-11T12:31:55;254.98;;;235.63;;
53915;SDS011;39827;49.652;18.770;2023-02-11T12:34:34;298.30;;;276.10;;
53915;SDS011;39827;49.652;18.770;2023-02-11T12:43:00;107.32;;;97.75;;
53915;SDS011;39827;49.652;18.770;2023-02-11T12:54:27;118.68;;;109.35;;
53915;SDS011;39827;49.652;18.770;2023-02-11T12:57:10;95.13;;;87.00;;
53915;SDS011;39827;49.652;18.770;2023-02-11T13:02:22;80.15;;;72.57;;
53915;SDS011;39827;49.652;18.770;2023-02-11T13:04:56;102.50;;;93.85;;
53915;SDS011;39827;49.652;18.770;2023-02-11T13:07:32;87.47;;;80.00;;
53915;SDS011;39827;49.652;18.770;2023-02-11T13:13:12;86.28;;;77.80;;
53915;SDS011;39827;49.652;18.770;2023-02-11T13:16:02;97.57;;;88.57;;
53915;SDS011;39827;49.652;18.770;2023-02-11T13:21:21;141.73;;;129.95;;
53915;SDS011;39827;49.652;18.770;2023-02-11T13:31:54;344.70;;;320.58;;
53915;SDS011;39827;49.652;18.770;2023-02-11T13:37:30;408.30;;;377.75;;
53915;SDS011;39827;49.652;18.770;2023-02-11T13:42:29;373.25;;;345.23;;
53915;SDS011;39827;49.652;18.770;2023-02-11T13:44:57;350.58;;;324.17;;
53915;SDS011;39827;49.652;18.770;2023-02-11T13:49:54;389.70;;;358.85;;
53915;SDS011;39827;49.652;18.770;2023-02-11T13:52:28;479.70;;;440.25;;
53915;SDS011;39827;49.652;18.770;2023-02-11T13:54:58;435.08;;;399.67;;
53915;SDS011;39827;49.652;18.770;2023-02-11T13:57:31;496.05;;;456.95;;
53915;SDS011;39827;49.652;18.770;2023-02-11T14:02:36;522.10;;;480.55;;
53915;SDS011;39827;49.652;18.770;2023-02-11T14:05:22;489.75;;;451.65;;
53915;SDS011;39827;49.652;18.770;2023-02-11T14:10:56;354.92;;;326.30;;
53915;SDS011;39827;49.652;18.770;2023-02-11T14:21:23;326.58;;;298.50;;
53915;SDS011;39827;49.652;18.770;2023-02-11T14:26:28;286.08;;;261.83;;
53915;SDS011;39827;49.652;18.770;2023-02-11T14:29:08;291.50;;;267.85;;
53915;SDS011;39827;49.652;18.770;2023-02-11T14:32:04;275.85;;;253.45;;
53915;SDS011;39827;49.652;18.770;2023-02-11T14:37:24;284.27;;;261.10;;
53915;SDS011;39827;49.652;18.770;2023-02-11T14:40:34;281.95;;;258.10;;
53915;SDS011;39827;49.652;18.770;2023-02-11T14:43:06;279.08;;;255.85;;
53915;SDS011;39827;49.652;18.770;2023-02-11T14:45:37;277.38;;;254.50;;
53915;SDS011;39827;49.652;18.770;2023-02-11T14:48:05;307.80;;;281.90;;
53915;SDS011;39827;49.652;18.770;2023-02-11T14:51:12;327.70;;;298.25;;
53915;SDS011;39827;49.652;18.770;2023-02-11T14:53:50;300.90;;;274.75;;
53915;SDS011;39827;49.652;18.770;2023-02-11T14:56:22;288.50;;;264.58;;
53915;SDS011;39827;49.652;18.770;2023-02-11T14:58:50;273.65;;;251.02;;
53915;SDS011;39827;49.652;18.770;2023-02-11T15:03:53;311.67;;;286.85;;
53915;SDS011;39827;49.652;18.770;2023-02-11T15:09:04;317.33;;;291.27;;
53915;SDS011;39827;49.652;18.770;2023-02-11T15:11:38;306.90;;;282.98;;
53915;SDS011;39827;49.652;18.770;2023-02-11T15:14:09;321.90;;;296.08;;
53915;SDS011;39827;49.652;18.770;2023-02-11T15:16:41;311.55;;;286.45;;
53915;SDS011;39827;49.652;18.770;2023-02-11T15:19:20;331.88;;;305.20;;
53915;SDS011;39827;49.652;18.770;2023-02-11T15:21:46;333.85;;;305.98;;
53915;SDS011;39827;49.652;18.770;2023-02-11T15:24:30;314.58;;;288.13;;
53915;SDS011;39827;49.652;18.770;2023-02-11T15:29:35;297.42;;;273.02;;
53915;SDS011;39827;49.652;18.770;2023-02-11T15:32:22;302.88;;;277.90;;
53915;SDS011;39827;49.652;18.770;2023-02-11T15:34:50;308.77;;;282.13;;
53915;SDS011;39827;49.652;18.770;2023-02-11T15:39:48;325.58;;;297.55;;
53915;SDS011;39827;49.652;18.770;2023-02-11T15:42:14;325.15;;;298.95;;
53915;SDS011;39827;49.652;18.770;2023-02-11T15:44:40;319.80;;;292.58;;
53915;SDS011;39827;49.652;18.770;2023-02-11T15:47:08;336.55;;;306.92;;
53915;SDS011;39827;49.652;18.770;2023-02-11T15:49:34;313.45;;;287.17;;
53915;SDS011;39827;49.652;18.770;2023-02-11T15:52:00;350.02;;;318.67;;
53915;SDS011;39827;49.652;18.770;2023-02-11T15:54:27;355.40;;;324.25;;
53915;SDS011;39827;49.652;18.770;2023-02-11T15:57:02;359.45;;;328.92;;
53915;SDS011;39827;49.652;18.770;2023-02-11T15:59:43;351.60;;;322.05;;
53915;SDS011;39827;49.652;18.770;2023-02-11T16:02:18;350.30;;;321.10;;
53915;SDS011;39827;49.652;18.770;2023-02-11T16:05:01;333.55;;;306.17;;
53915;SDS011;39827;49.652;18.770;2023-02-11T16:13:03;336.50;;;308.77;;
53915;SDS011;39827;49.652;18.770;2023-02-11T16:15:46;361.60;;;329.25;;
53915;SDS011;39827;49.652;18.770;2023-02-11T16:18:24;358.67;;;328.63;;
53915;SDS011;39827;49.652;18.770;2023-02-11T16:20:50;352.80;;;321.88;;
53915;SDS011;39827;49.652;18.770;2023-02-11T16:23:26;385.20;;;353.05;;
53915;SDS011;39827;49.652;18.770;2023-02-11T16:26:00;384.30;;;352.30;;
53915;SDS011;39827;49.652;18.770;2023-02-11T16:28:33;368.83;;;337.45;;
53915;SDS011;39827;49.652;18.770;2023-02-11T16:31:00;374.27;;;340.52;;
53915;SDS011;39827;49.652;18.770;2023-02-11T16:33:27;408.63;;;373.92;;
53915;SDS011;39827;49.652;18.770;2023-02-11T16:35:52;380.13;;;347.77;;
53915;SDS011;39827;49.652;18.770;2023-02-11T16:38:18;418.23;;;381.15;;
53915;SDS011;39827;49.652;18.770;2023-02-11T16:40:43;424.48;;;387.15;;
53915;SDS011;39827;49.652;18.770;2023-02-11T16:43:12;401.05;;;364.58;;
53915;SDS011;39827;49.652;18.770;2023-02-11T16:45:38;389.00;;;354.95;;